Time;durP1;ratioP1;P1;durP2;ratioP2;P2;SDS_P1;SDS_P2;PMS_P1;PMS_P2;Temp;Humidity;BMP_temperature;BMP_pressure;BME280_temperature;BME280_humidity;BME280_pressure;Samples;Min_cycle;Max_cycle;Signal;HPM_P1;HPM_P2
2022/05/20 00:01:46;;;;;;;11.25;7.20;;;13.70;99.90;;;;;;5095730;28;20127;-73
2022/05/20 00:04:11;;;;;;;11.27;6.28;;;13.60;99.90;;;;;;5095623;28;20098;-76
2022/05/20 00:06:37;;;;;;;9.95;7.13;;;13.70;99.90;;;;;;5077769;28;20048;-74
2022/05/20 00:09:03;;;;;;;8.10;6.65;;;13.70;99.90;;;;;;5095455;28;20062;-74
2022/05/20 00:11:29;;;;;;;7.95;6.10;;;13.70;99.90;;;;;;5095406;28;20051;-74
2022/05/20 00:13:55;;;;;;;8.98;6.43;;;13.60;99.90;;;;;;5110917;28;20143;-73
2022/05/20 00:16:23;;;;;;;10.30;6.78;;;13.60;99.90;;;;;;5095458;28;20055;-76
2022/05/20 00:18:49;;;;;;;7.35;6.40;;;13.70;99.90;;;;;;5095387;28;20044;-73
2022/05/20 00:21:15;;;;;;;8.63;6.28;;;13.70;99.90;;;;;;5095275;28;20048;-72
2022/05/20 00:23:40;;;;;;;8.00;5.68;;;13.70;99.90;;;;;;5094936;28;20059;-74
2022/05/20 00:26:06;;;;;;;9.02;5.05;;;13.70;99.90;;;;;;5094979;28;20054;-75
2022/05/20 00:28:32;;;;;;;7.05;4.78;;;13.70;99.90;;;;;;5094847;28;20044;-75
2022/05/20 00:31:06;;;;;;;6.72;4.32;;;13.70;99.90;;;;;;5095187;28;20040;-73
2022/05/20 00:33:34;;;;;;;6.05;5.32;;;13.70;99.90;;;;;;5094922;28;20480;-73
2022/05/20 00:36:00;;;;;;;8.10;5.35;;;13.70;99.90;;;;;;5095027;28;20083;-73
2022/05/20 00:38:26;;;;;;;8.40;4.82;;;13.60;99.90;;;;;;5094875;28;20086;-73
2022/05/20 00:40:52;;;;;;;;;;;13.70;99.90;;;;;;5095292;28;20047;-76
2022/05/20 00:43:24;;;;;;;9.27;6.30;;;13.60;99.90;;;;;;5094623;28;19943;-73
2022/05/20 00:45:51;;;;;;;6.10;5.50;;;13.60;99.90;;;;;;5094907;28;20052;-73
2022/05/20 00:48:17;;;;;;;8.10;4.90;;;13.60;99.90;;;;;;5094780;28;20048;-73
2022/05/20 00:50:48;;;;;;;8.00;4.97;;;13.60;99.90;;;;;;5076598;28;20055;-73
2022/05/20 00:53:17;;;;;;;10.57;5.18;;;13.60;99.90;;;;;;5094361;28;20114;-73
2022/05/20 00:55:44;;;;;;;5.60;4.15;;;13.60;99.90;;;;;;5094447;28;20416;-75
2022/05/20 00:58:13;;;;;;;10.38;5.45;;;13.60;99.90;;;;;;5094663;28;20450;-74
2022/05/20 01:00:43;;;;;;;10.40;5.95;;;13.40;99.90;;;;;;5094614;28;20040;-73
2022/05/20 01:03:12;;;;;;;8.77;6.35;;;13.40;99.90;;;;;;5076563;28;20044;-74
2022/05/20 01:05:42;;;;;;;9.77;5.93;;;13.40;99.90;;;;;;5094397;28;20047;-73
2022/05/20 01:08:11;;;;;;;7.15;6.20;;;13.50;99.90;;;;;;5094309;28;20040;-73
2022/05/20 01:10:36;;;;;;;10.73;6.13;;;13.50;99.90;;;;;;5076388;28;20518;-73
2022/05/20 01:13:03;;;;;;;7.57;6.30;;;13.50;99.90;;;;;;5094218;28;20105;-73
2022/05/20 01:15:30;;;;;;;8.73;6.22;;;13.50;99.90;;;;;;5094212;28;20051;-73
2022/05/20 01:17:57;;;;;;;7.95;5.95;;;13.50;99.90;;;;;;5094252;28;20044;-76
2022/05/20 01:20:27;;;;;;;9.60;6.45;;;13.50;99.90;;;;;;5094149;28;20178;-76
2022/05/20 01:23:04;;;;;;;12.30;7.53;;;13.50;99.90;;;;;;5093969;28;20048;-73
2022/05/20 01:25:30;;;;;;;8.00;5.93;;;13.50;99.90;;;;;;5094195;28;20131;-73
2022/05/20 01:27:57;;;;;;;7.38;5.97;;;13.40;99.90;;;;;;5075216;28;20478;-75
2022/05/20 01:30:26;;;;;;;9.93;7.68;;;13.40;99.90;;;;;;5093845;28;20396;-73
2022/05/20 01:32:52;;;;;;;7.78;5.95;;;13.40;99.90;;;;;;5093870;28;20044;-74
2022/05/20 01:35:24;;;;;;;;;;;13.40;99.90;;;;;;5094180;28;20515;-73
2022/05/20 01:37:50;;;;;;;9.57;6.90;;;13.40;99.90;;;;;;5093695;28;20014;-73
2022/05/20 01:40:16;;;;;;;8.07;6.32;;;13.40;99.90;;;;;;5093898;28;20079;-73
2022/05/20 01:42:47;;;;;;;9.80;6.57;;;13.40;99.90;;;;;;5093378;28;20074;-73
2022/05/20 01:45:25;;;;;;;7.07;5.70;;;13.30;99.90;;;;;;5075857;28;20508;-73
2022/05/20 01:48:05;;;;;;;7.15;6.03;;;13.30;99.90;;;;;;5093636;28;20411;-73
2022/05/20 01:50:38;;;;;;;10.05;6.20;;;13.30;99.90;;;;;;5093541;28;20052;-73
2022/05/20 01:53:17;;;;;;;9.63;6.93;;;13.30;99.90;;;;;;5093623;28;20036;-76
2022/05/20 01:56:03;;;;;;;9.65;6.68;;;13.20;99.90;;;;;;5093676;28;20051;-73
2022/05/20 01:58:37;;;;;;;8.60;6.65;;;13.10;99.90;;;;;;5093369;28;20499;-73
2022/05/20 02:01:08;;;;;;;7.70;6.38;;;13.10;99.90;;;;;;5093349;28;20491;-73
2022/05/20 02:03:46;;;;;;;7.85;6.68;;;13.20;99.90;;;;;;5093499;28;20109;-76
2022/05/20 02:06:24;;;;;;;11.25;6.28;;;13.00;99.90;;;;;;5093307;28;20400;-75
2022/05/20 02:09:07;;;;;;;8.93;6.13;;;13.00;99.90;;;;;;5093331;28;20130;-76
2022/05/20 02:11:40;;;;;;;7.90;5.72;;;13.00;99.90;;;;;;5093544;28;20040;-76
2022/05/20 02:14:28;;;;;;;7.22;6.32;;;13.30;99.90;;;;;;5093202;28;20138;-73
2022/05/20 02:17:13;;;;;;;6.88;5.15;;;13.00;99.90;;;;;;5058907;28;20052;-73
2022/05/20 02:20:07;;;;;;;6.93;5.47;;;13.00;99.90;;;;;;5093182;28;20048;-75
2022/05/20 02:22:37;;;;;;;9.32;6.47;;;13.10;99.90;;;;;;5010946;28;20057;-75
2022/05/20 02:25:06;;;;;;;9.32;6.32;;;13.00;99.90;;;;;;4994505;28;20514;-76
2022/05/20 02:27:37;;;;;;;16.10;7.65;;;13.00;99.90;;;;;;5010874;28;20136;-73
2022/05/20 02:30:11;;;;;;;11.00;6.30;;;13.00;99.90;;;;;;5011121;28;20053;-72
2022/05/20 02:32:51;;;;;;;8.55;6.20;;;13.00;99.90;;;;;;5011079;28;20050;-74
2022/05/20 02:35:17;;;;;;;9.82;6.40;;;13.00;99.90;;;;;;5011128;28;20050;-75
2022/05/20 02:37:43;;;;;;;12.20;7.15;;;13.00;99.90;;;;;;4994280;28;20093;-76
2022/05/20 02:40:12;;;;;;;7.68;6.07;;;13.00;99.90;;;;;;5011063;28;20093;-73
2022/05/20 02:42:38;;;;;;;10.35;6.63;;;13.00;99.90;;;;;;4994870;28;20058;-73
2022/05/20 02:45:06;;;;;;;11.93;5.78;;;13.00;99.90;;;;;;5010970;28;20108;-75
2022/05/20 02:47:33;;;;;;;10.05;6.15;;;13.10;99.90;;;;;;5010891;28;20050;-73
2022/05/20 02:50:05;;;;;;;11.00;6.55;;;13.00;99.90;;;;;;5011012;28;20056;-73
2022/05/20 02:52:31;;;;;;;9.45;6.55;;;13.00;99.90;;;;;;5010684;28;20277;-73
2022/05/20 02:54:56;;;;;;;11.15;7.18;;;13.30;99.90;;;;;;4995466;28;20145;-74
2022/05/20 02:57:22;;;;;;;8.73;6.10;;;13.00;99.90;;;;;;5014715;28;20049;-72
2022/05/20 03:05:18;;;;;;;8.60;5.70;;;13.10;99.90;;;;;;5096694;28;20059;-73
2022/05/20 03:07:43;;;;;;;9.88;6.35;;;14.20;99.90;;;;;;5078786;28;20131;-74
2022/05/20 03:10:09;;;;;;;11.68;6.25;;;13.00;99.90;;;;;;5078782;28;20151;-75
2022/05/20 03:12:35;;;;;;;8.43;6.65;;;13.00;99.90;;;;;;5096631;28;20461;-75
2022/05/20 03:15:13;;;;;;;7.78;6.40;;;13.00;99.90;;;;;;5096628;28;20059;-73
2022/05/20 03:17:39;;;;;;;11.30;7.22;;;12.90;99.90;;;;;;5096539;28;20131;-74
2022/05/20 03:20:08;;;;;;;11.13;7.65;;;13.20;99.90;;;;;;5096539;28;20044;-73
2022/05/20 03:22:35;;;;;;;12.80;7.50;;;12.70;99.90;;;;;;5096557;28;20044;-73
2022/05/20 03:25:00;;;;;;;;;;;12.80;99.90;;;;;;5096420;28;20095;-75
2022/05/20 03:27:27;;;;;;;12.85;8.10;;;12.80;99.90;;;;;;5096399;28;20390;-73
2022/05/20 03:29:53;;;;;;;11.38;8.00;;;12.80;99.90;;;;;;5096209;28;20555;-73
2022/05/20 03:32:19;;;;;;;22.02;8.40;;;12.80;99.90;;;;;;5096207;28;20044;-74
2022/05/20 03:34:44;;;;;;;9.80;7.47;;;13.00;99.90;;;;;;5096265;28;20044;-76
2022/05/20 03:37:10;;;;;;;9.40;6.90;;;12.80;99.90;;;;;;5078288;28;20432;-73
2022/05/20 03:39:36;;;;;;;10.27;7.38;;;12.70;99.90;;;;;;5096008;28;20047;-75
2022/05/20 03:42:03;;;;;;;11.00;8.00;;;12.70;99.90;;;;;;5096179;28;20048;-73
2022/05/20 03:44:29;;;;;;;11.65;8.38;;;12.60;99.90;;;;;;5095957;28;20064;-73
2022/05/20 03:46:56;;;;;;;9.50;7.40;;;12.60;99.90;;;;;;5095930;28;20051;-76
2022/05/20 03:49:25;;;;;;;15.02;8.88;;;12.60;99.90;;;;;;5095897;28;20052;-77
2022/05/20 03:51:52;;;;;;;14.45;8.45;;;12.50;99.90;;;;;;5077885;28;20084;-73
2022/05/20 03:54:19;;;;;;;9.93;8.02;;;12.60;99.90;;;;;;5095555;28;20484;-73
2022/05/20 03:56:45;;;;;;;9.90;8.55;;;12.60;99.90;;;;;;5095789;28;20051;-76
2022/05/20 03:59:11;;;;;;;14.40;9.15;;;12.50;99.90;;;;;;5095591;28;20048;-75
2022/05/20 04:04:24;;;;;;;11.85;7.95;;;12.50;99.90;;;;;;5095554;28;19927;-72
2022/05/20 04:06:50;;;;;;;12.02;8.73;;;12.50;99.90;;;;;;5095079;28;20048;-74
2022/05/20 04:09:16;;;;;;;11.57;8.15;;;12.60;99.90;;;;;;5077835;28;20134;-73
2022/05/20 04:11:42;;;;;;;12.25;8.05;;;12.60;99.90;;;;;;5095579;28;20044;-73
2022/05/20 04:14:09;;;;;;;11.63;8.68;;;12.60;99.90;;;;;;5095158;28;20051;-73
2022/05/20 04:16:35;;;;;;;11.82;8.55;;;13.00;99.90;;;;;;5077539;28;20055;-73
2022/05/20 04:19:01;;;;;;;13.93;8.50;;;12.70;99.90;;;;;;5095294;28;20056;-75
2022/05/20 04:21:26;;;;;;;11.40;8.23;;;12.70;99.90;;;;;;5094992;28;20052;-75
2022/05/20 04:23:52;;;;;;;9.60;7.72;;;12.60;99.90;;;;;;5095017;28;20063;-74
2022/05/20 04:26:18;;;;;;;10.35;8.88;;;12.60;99.90;;;;;;5095278;28;20407;-73
2022/05/20 04:28:44;;;;;;;;;;;13.20;99.90;;;;;;5077717;28;20135;-73
2022/05/20 04:31:11;;;;;;;12.80;8.52;;;12.60;99.90;;;;;;5077304;28;19998;-73
2022/05/20 04:33:38;;;;;;;11.30;7.75;;;13.30;99.90;;;;;;5095025;28;20400;-77
2022/05/20 04:36:05;;;;;;;10.13;7.85;;;12.60;99.90;;;;;;5094962;28;20403;-74
2022/05/20 04:38:31;;;;;;;13.63;8.75;;;12.60;99.90;;;;;;5094843;28;20063;-74
2022/05/20 04:49:10;;;;;;;11.85;8.55;;;12.70;99.90;;;;;;5094583;28;20549;-73
2022/05/20 04:51:37;;;;;;;13.40;8.13;;;12.80;99.90;;;;;;5094698;28;20169;-74
2022/05/20 04:56:49;;;;;;;14.45;9.50;;;12.50;99.90;;;;;;5094629;28;20059;-73
2022/05/20 04:59:16;;;;;;;12.30;9.50;;;12.50;99.90;;;;;;5094449;28;20052;-73
2022/05/20 05:01:41;;;;;;;14.88;9.95;;;12.60;99.90;;;;;;5094600;28;20127;-73
2022/05/20 05:04:07;;;;;;;11.35;9.43;;;12.60;99.90;;;;;;5094617;28;20198;-75
2022/05/20 05:06:34;;;;;;;12.32;9.77;;;12.60;99.90;;;;;;5094503;28;20093;-74
2022/05/20 05:08:59;;;;;;;;;;;12.60;99.90;;;;;;5094810;28;20040;-75
2022/05/20 05:11:25;;;;;;;13.98;9.60;;;12.40;99.90;;;;;;5076409;28;19942;-73
2022/05/20 05:13:51;;;;;;;15.00;9.30;;;12.60;99.90;;;;;;5094026;28;20074;-73
2022/05/20 05:16:16;;;;;;;13.60;8.88;;;12.70;99.90;;;;;;5076272;28;20051;-73
2022/05/20 05:18:42;;;;;;;11.77;9.70;;;12.70;99.90;;;;;;5093619;28;20051;-73
2022/05/20 05:21:08;;;;;;;11.73;9.05;;;12.80;99.90;;;;;;5076021;28;20400;-75
2022/05/20 05:23:33;;;;;;;10.55;9.18;;;12.80;99.90;;;;;;5093971;28;20067;-75
2022/05/20 05:25:59;;;;;;;11.05;8.57;;;12.80;99.90;;;;;;5093951;28;20048;-72
2022/05/20 05:28:25;;;;;;;12.95;8.73;;;12.80;99.90;;;;;;5075420;28;20094;-75
2022/05/20 05:30:52;;;;;;;15.00;9.45;;;12.90;99.90;;;;;;5093865;28;20060;-73
2022/05/20 05:33:20;;;;;;;13.80;9.50;;;12.90;99.90;;;;;;5094266;28;20046;-75
2022/05/20 05:35:46;;;;;;;12.70;9.45;;;13.00;99.90;;;;;;5093983;28;20090;-75
2022/05/20 05:38:12;;;;;;;14.18;10.70;;;13.10;99.90;;;;;;5093967;28;20082;-72
2022/05/20 05:40:39;;;;;;;15.30;9.13;;;13.00;99.90;;;;;;5093826;28;20434;-73
2022/05/20 05:43:06;;;;;;;12.20;9.10;;;13.00;99.90;;;;;;5093608;28;20081;-73
2022/05/20 05:45:33;;;;;;;14.30;9.40;;;13.10;99.90;;;;;;5093605;28;20126;-72
2022/05/20 05:48:05;;;;;;;14.25;9.15;;;13.10;99.90;;;;;;5075966;28;20074;-75
2022/05/20 05:50:32;;;;;;;15.05;8.30;;;13.10;99.90;;;;;;5093722;28;20048;-73
2022/05/20 05:53:00;;;;;;;18.48;9.65;;;13.10;99.90;;;;;;5093466;28;20067;-73
2022/05/20 05:55:27;;;;;;;14.93;9.55;;;13.10;99.90;;;;;;5093608;28;20087;-73
2022/05/20 05:57:53;;;;;;;15.85;10.90;;;13.10;99.90;;;;;;5093417;28;20078;-73
2022/05/20 06:00:19;;;;;;;14.00;9.35;;;13.20;99.90;;;;;;5093502;28;20123;-73
2022/05/20 06:02:45;;;;;;;13.30;10.35;;;13.10;99.90;;;;;;5093619;28;20075;-74
2022/05/20 06:05:11;;;;;;;14.30;9.65;;;13.20;99.90;;;;;;5058651;28;20095;-73
2022/05/20 06:07:37;;;;;;;;;;;13.30;99.90;;;;;;5093935;28;20048;-72
2022/05/20 06:10:04;;;;;;;11.90;8.73;;;13.30;99.90;;;;;;5075615;28;19920;-74
2022/05/20 06:12:31;;;;;;;12.15;9.80;;;13.30;99.90;;;;;;5075470;28;20055;-73
2022/05/20 06:14:57;;;;;;;12.68;9.77;;;13.30;99.90;;;;;;5075211;28;20055;-72
2022/05/20 06:17:23;;;;;;;12.20;8.85;;;13.40;99.90;;;;;;5093429;28;20086;-76
2022/05/20 06:19:49;;;;;;;16.25;8.38;;;13.40;99.90;;;;;;5075033;28;20056;-74
2022/05/20 06:22:14;;;;;;;13.02;8.35;;;13.60;99.90;;;;;;5075478;28;20079;-72
2022/05/20 06:24:40;;;;;;;12.13;8.23;;;13.40;99.90;;;;;;5093095;28;20056;-73
2022/05/20 06:27:06;;;;;;;12.85;7.85;;;13.40;99.90;;;;;;5092029;28;20496;-72
2022/05/20 06:29:32;;;;;;;11.18;7.57;;;13.40;99.90;;;;;;5094898;28;20055;-74
2022/05/20 06:31:57;;;;;;;13.52;8.23;;;13.40;99.90;;;;;;5097051;28;20051;-74
2022/05/20 06:34:23;;;;;;;12.20;8.13;;;13.50;99.90;;;;;;5062151;28;20052;-73
2022/05/20 06:39:51;;;;;;;10.20;8.10;;;13.60;99.90;;;;;;5097156;28;20092;-72
2022/05/20 06:42:19;;;;;;;13.00;7.75;;;13.70;99.90;;;;;;5097021;28;20044;-73
2022/05/20 06:44:45;;;;;;;10.05;6.45;;;13.70;99.90;;;;;;5078779;28;20064;-73
2022/05/20 06:47:12;;;;;;;10.45;7.22;;;13.80;99.90;;;;;;5079311;28;20052;-72
2022/05/20 06:49:37;;;;;;;9.13;6.00;;;13.90;99.90;;;;;;5096874;28;20044;-72
2022/05/20 06:52:03;;;;;;;10.63;6.70;;;14.00;99.90;;;;;;5097107;28;20495;-72
2022/05/20 06:54:29;;;;;;;9.93;7.70;;;14.10;99.90;;;;;;5078758;28;20048;-73
2022/05/20 06:56:55;;;;;;;11.15;5.88;;;14.20;99.90;;;;;;5096595;28;20080;-73
2022/05/20 06:59:21;;;;;;;15.23;6.35;;;14.20;99.90;;;;;;5097053;28;20113;-73
2022/05/20 07:01:46;;;;;;;10.95;5.85;;;14.80;99.90;;;;;;5096910;28;20483;-74
2022/05/20 07:04:12;;;;;;;11.90;6.45;;;14.30;99.90;;;;;;5096795;28;20098;-74
2022/05/20 07:06:38;;;;;;;10.50;6.45;;;14.70;99.90;;;;;;5096707;28;20484;-74
2022/05/20 07:09:06;;;;;;;7.45;5.47;;;14.40;99.90;;;;;;5096647;28;20055;-72
2022/05/20 07:11:32;;;;;;;8.77;5.63;;;14.40;99.90;;;;;;5078000;28;20087;-74
2022/05/20 07:13:58;;;;;;;6.65;4.32;;;14.50;99.90;;;;;;5096622;28;20036;-75
2022/05/20 07:16:25;;;;;;;;;;;14.50;99.90;;;;;;5097057;28;20052;-74
2022/05/20 07:18:51;;;;;;;9.18;5.80;;;14.70;99.90;;;;;;5096428;28;20399;-72
2022/05/20 07:21:17;;;;;;;9.43;5.03;;;14.60;99.90;;;;;;5096396;28;20044;-72
2022/05/20 07:23:42;;;;;;;9.43;5.60;;;14.70;99.90;;;;;;5096282;28;20052;-74
2022/05/20 07:26:09;;;;;;;8.05;5.63;;;14.70;99.90;;;;;;5096186;28;20063;-72
2022/05/20 07:28:35;;;;;;;10.80;5.90;;;14.80;99.90;;;;;;5095978;28;20044;-72
2022/05/20 07:31:01;;;;;;;9.18;5.82;;;14.90;99.90;;;;;;5096382;28;20048;-72
2022/05/20 07:33:28;;;;;;;9.05;6.00;;;15.00;99.90;;;;;;5096170;28;20136;-72
2022/05/20 07:35:55;;;;;;;10.18;6.22;;;15.00;99.90;;;;;;5096124;28;20048;-75
2022/05/20 07:38:22;;;;;;;9.43;6.50;;;15.10;99.90;;;;;;5096137;28;20051;-73
2022/05/20 07:40:47;;;;;;;7.93;5.78;;;15.10;99.90;;;;;;5095276;28;20040;-74
2022/05/20 07:43:26;;;;;;;7.88;5.18;;;15.10;99.90;;;;;;5095823;28;20051;-76
2022/05/20 07:45:52;;;;;;;7.25;5.13;;;15.20;99.90;;;;;;5096011;28;20049;-73
2022/05/20 07:48:19;;;;;;;11.73;5.35;;;15.20;99.90;;;;;;5095866;28;20377;-73
2022/05/20 07:50:47;;;;;;;9.32;4.20;;;15.20;99.90;;;;;;5095666;28;20048;-72
2022/05/20 07:53:20;;;;;;;7.90;5.38;;;15.30;99.90;;;;;;5077719;28;20050;-72
2022/05/20 07:55:51;;;;;;;8.25;5.00;;;15.30;99.90;;;;;;5095502;28;20044;-72
2022/05/20 07:58:32;;;;;;;11.18;4.88;;;15.40;99.90;;;;;;5095770;28;20139;-72
2022/05/20 08:00:59;;;;;;;10.40;4.88;;;15.40;99.90;;;;;;5095682;28;20040;-74
2022/05/20 08:06:13;;;;;;;7.93;4.25;;;15.40;99.90;;;;;;5095512;28;20059;-73
2022/05/20 08:08:40;;;;;;;8.88;4.22;;;15.40;99.90;;;;;;5095627;28;20040;-74
2022/05/20 08:11:05;;;;;;;;;;;15.50;99.90;;;;;;5077897;28;20393;-73
2022/05/20 08:13:31;;;;;;;6.07;4.18;;;15.50;99.90;;;;;;5095348;28;19977;-72
2022/05/20 08:15:57;;;;;;;7.05;4.50;;;15.90;99.90;;;;;;5095399;28;20055;-72
2022/05/20 08:18:22;;;;;;;8.13;4.00;;;15.50;99.90;;;;;;5095337;28;20043;-72
2022/05/20 08:20:48;;;;;;;9.25;4.70;;;15.60;99.90;;;;;;5095325;28;20070;-72
2022/05/20 08:23:14;;;;;;;9.30;5.05;;;15.60;99.90;;;;;;5095368;28;20040;-72
2022/05/20 08:25:40;;;;;;;11.07;5.78;;;15.70;99.90;;;;;;5095178;28;20117;-73
2022/05/20 08:28:06;;;;;;;7.30;4.57;;;15.70;99.90;;;;;;5095108;28;20079;-73
2022/05/20 08:30:32;;;;;;;6.38;4.63;;;15.80;99.90;;;;;;5095124;28;20439;-74
2022/05/20 08:32:58;;;;;;;6.57;4.50;;;15.80;99.90;;;;;;5094839;28;20499;-73
2022/05/20 08:35:26;;;;;;;5.53;3.78;;;15.90;99.90;;;;;;5094860;28;20036;-75
2022/05/20 08:37:52;;;;;;;8.45;4.05;;;15.90;99.90;;;;;;5094845;28;20055;-72
2022/05/20 08:40:29;;;;;;;6.45;4.57;;;16.00;99.90;;;;;;5094973;28;20040;-72
2022/05/20 08:42:57;;;;;;;6.07;4.35;;;16.10;99.90;;;;;;5094933;28;20040;-72
2022/05/20 08:45:26;;;;;;;8.18;3.80;;;16.10;99.90;;;;;;5094700;28;20054;-72
2022/05/20 08:47:53;;;;;;;7.40;4.07;;;16.20;99.90;;;;;;5094798;28;20130;-72
2022/05/20 08:50:23;;;;;;;5.93;4.30;;;16.20;99.90;;;;;;5094583;28;20496;-73
2022/05/20 08:52:52;;;;;;;9.27;4.55;;;16.30;99.90;;;;;;5093639;28;20040;-72
2022/05/20 08:55:18;;;;;;;8.32;4.50;;;16.30;99.90;;;;;;5094661;28;20059;-73
2022/05/20 08:58:03;;;;;;;6.28;3.45;;;16.30;99.90;;;;;;5094553;28;20051;-75
2022/05/20 09:00:30;;;;;;;5.07;3.45;;;16.30;99.90;;;;;;5094373;28;20051;-72
2022/05/20 09:02:56;;;;;;;7.75;3.78;;;16.30;99.90;;;;;;5075907;28;20066;-73
2022/05/20 09:05:33;;;;;;;7.13;4.20;;;16.30;99.90;;;;;;5094564;28;20044;-72
2022/05/20 09:08:03;;;;;;;6.10;4.00;;;16.40;99.90;;;;;;5094498;28;20048;-72
2022/05/20 09:10:38;;;;;;;9.15;4.70;;;16.40;99.90;;;;;;5094270;28;20503;-71
2022/05/20 09:16:31;;;;;;;6.32;4.13;;;16.30;99.90;;;;;;5094197;28;20176;-72
2022/05/20 09:19:08;;;;;;;4.85;3.45;;;16.30;99.90;;;;;;5076332;28;20048;-72
2022/05/20 09:21:43;;;;;;;7.07;3.05;;;16.30;99.90;;;;;;5075814;28;20059;-72
2022/05/20 09:24:35;;;;;;;6.03;3.15;;;16.30;99.90;;;;;;5094003;28;20067;-72
2022/05/20 09:27:08;;;;;;;6.10;3.72;;;16.30;99.90;;;;;;5094044;28;20082;-74
2022/05/20 09:29:45;;;;;;;5.32;3.55;;;16.40;99.90;;;;;;5074724;28;20521;-72
2022/05/20 09:32:25;;;;;;;6.32;3.60;;;16.50;99.90;;;;;;5093516;28;20102;-73
2022/05/20 09:35:19;;;;;;;5.80;3.83;;;16.50;99.90;;;;;;5056538;28;20052;-73
2022/05/20 09:37:47;;;;;;;6.22;3.40;;;16.50;99.90;;;;;;5092662;28;20044;-72
2022/05/20 09:40:16;;;;;;;6.25;3.28;;;16.50;99.90;;;;;;5093118;28;20082;-73
2022/05/20 09:42:57;;;;;;;6.68;3.88;;;16.60;99.90;;;;;;5092977;28;20127;-72
2022/05/20 09:45:23;;;;;;;5.43;3.85;;;16.70;99.90;;;;;;5093411;28;20127;-73
2022/05/20 09:47:57;;;;;;;9.15;3.85;;;16.70;99.90;;;;;;5093169;28;20076;-72
2022/05/20 09:50:31;;;;;;;4.97;3.70;;;16.70;99.90;;;;;;5093326;28;20048;-72
2022/05/20 09:53:01;;;;;;;6.93;4.00;;;16.80;99.90;;;;;;5073323;28;20036;-72
2022/05/20 09:55:43;;;;;;;5.85;4.13;;;16.80;99.90;;;;;;5073217;28;20067;-70
2022/05/20 09:58:21;;;;;;;6.00;3.10;;;16.90;99.90;;;;;;5055505;28;20052;-71
2022/05/20 10:01:05;;;;;;;8.15;4.38;;;17.00;99.90;;;;;;5055514;28;20445;-72
2022/05/20 10:03:34;;;;;;;9.30;3.33;;;17.10;99.90;;;;;;5072901;28;20040;-73
2022/05/20 10:06:21;;;;;;;4.95;3.50;;;17.10;99.90;;;;;;5072209;28;20051;-71
2022/05/20 10:09:12;;;;;;;5.50;3.47;;;17.20;99.90;;;;;;5054826;28;20071;-70
2022/05/20 10:11:59;;;;;;;6.35;3.53;;;17.10;99.90;;;;;;5072897;28;20524;-71
2022/05/20 10:14:49;;;;;;;5.80;3.90;;;17.20;99.90;;;;;;5054711;28;20040;-71
2022/05/20 10:17:39;;;;;;;8.88;4.93;;;17.20;99.90;;;;;;5072980;28;20048;-73
2022/05/20 10:20:16;;;;;;;6.40;4.20;;;17.20;99.90;;;;;;5072469;28;20091;-73
2022/05/20 10:23:12;;;;;;;10.07;5.38;;;17.20;99.90;;;;;;5072660;28;20451;-72
2022/05/20 10:26:22;;;;;;;6.28;4.78;;;17.20;99.90;;;;;;5072879;28;20041;-74
2022/05/20 10:34:45;;;;;;;6.72;4.07;;;17.30;99.90;;;;;;4991214;28;20096;-72
2022/05/20 10:37:38;;;;;;;4.80;3.85;;;17.30;99.90;;;;;;4991367;28;20086;-72
2022/05/20 10:40:41;;;;;;;5.68;4.53;;;17.40;99.90;;;;;;4991169;28;20065;-73
2022/05/20 10:43:28;;;;;;;5.10;3.58;;;17.40;99.90;;;;;;4991201;28;20046;-72
2022/05/20 10:49:18;;;;;;;8.77;5.63;;;17.50;99.90;;;;;;4991177;28;20465;-71
2022/05/20 10:51:43;;;;;;;7.38;6.32;;;17.50;99.90;;;;;;5007044;28;20063;-72
2022/05/20 10:54:45;;;;;;;9.40;5.28;;;17.50;99.90;;;;;;4991021;28;20046;-72
2022/05/20 10:57:48;;;;;;;9.95;5.05;;;17.60;99.90;;;;;;4974549;28;20058;-74
2022/05/20 11:00:19;;;;;;;6.68;4.45;;;17.70;99.90;;;;;;4990368;28;20065;-72
2022/05/20 11:03:02;;;;;;;6.97;4.88;;;17.70;99.90;;;;;;4990793;28;20042;-72
2022/05/20 11:05:33;;;;;;;10.38;5.20;;;17.80;99.90;;;;;;5013100;28;20117;-74
2022/05/20 11:08:20;;;;;;;7.53;4.82;;;17.80;99.90;;;;;;5072375;28;20049;-72
2022/05/20 11:10:52;;;;;;;6.35;4.55;;;17.80;99.90;;;;;;5054477;28;20044;-73
2022/05/20 11:13:47;;;;;;;4.78;4.05;;;17.80;99.90;;;;;;5072216;28;20105;-72
2022/05/20 11:16:50;;;;;;;6.25;4.75;;;17.80;99.90;;;;;;5073676;28;20439;-71
2022/05/20 11:19:35;;;;;;;5.38;4.38;;;17.90;99.90;;;;;;5057935;28;20048;-72
2022/05/20 11:22:21;;;;;;;7.85;4.55;;;17.90;99.90;;;;;;5076018;28;20052;-72
2022/05/20 11:25:15;;;;;;;8.32;5.38;;;18.00;99.90;;;;;;5075674;28;20082;-72
2022/05/20 11:27:45;;;;;;;8.90;5.38;;;18.00;99.90;;;;;;5075634;28;20044;-73
2022/05/20 11:30:30;;;;;;;6.57;5.35;;;18.10;99.90;;;;;;5075935;28;20071;-72
2022/05/20 11:33:09;;;;;;;7.00;5.30;;;18.10;99.90;;;;;;5075783;28;20047;-74
2022/05/20 11:35:41;;;;;;;6.88;5.43;;;18.10;99.90;;;;;;5075815;28;20055;-72
2022/05/20 11:38:22;;;;;;;7.25;4.30;;;18.20;99.90;;;;;;5076260;28;20052;-72
2022/05/20 11:41:04;;;;;;;5.22;4.55;;;18.20;99.90;;;;;;5093875;28;20052;-73
2022/05/20 11:44:05;;;;;;;4.93;4.05;;;18.20;99.90;;;;;;5075718;28;20090;-72
2022/05/20 11:47:01;;;;;;;7.00;3.65;;;18.20;99.90;;;;;;5074675;28;20063;-71
2022/05/20 11:49:36;;;;;;;5.35;4.00;;;18.20;99.90;;;;;;5075506;28;20071;-71
2022/05/20 11:52:10;;;;;;;7.28;4.70;;;18.30;99.90;;;;;;5075513;28;20051;-74
2022/05/20 11:54:50;;;;;;;7.25;5.28;;;18.30;99.90;;;;;;5075290;28;20047;-72
2022/05/20 11:57:21;;;;;;;6.65;5.00;;;18.40;99.90;;;;;;5075007;28;20045;-74
2022/05/20 11:59:50;;;;;;;6.50;3.60;;;18.40;99.90;;;;;;5057239;28;20501;-73
2022/05/20 12:02:18;;;;;;;5.68;3.80;;;18.40;99.90;;;;;;5075397;28;20409;-73
2022/05/20 12:04:46;;;;;;;7.75;4.68;;;18.40;99.90;;;;;;5075353;28;20058;-72
2022/05/20 12:07:16;;;;;;;7.68;4.88;;;18.50;99.90;;;;;;5057318;28;20063;-72
2022/05/20 12:09:43;;;;;;;6.20;3.88;;;18.40;99.90;;;;;;5075048;28;20131;-73
2022/05/20 12:12:27;;;;;;;6.05;4.10;;;18.50;99.90;;;;;;5075303;28;20044;-74
2022/05/20 12:15:11;;;;;;;4.60;3.28;;;18.50;99.90;;;;;;5074860;28;20525;-72
2022/05/20 12:17:48;;;;;;;5.78;3.58;;;18.50;99.90;;;;;;5074894;28;20053;-72
2022/05/20 12:26:22;;;;;;;9.40;4.90;;;18.60;99.90;;;;;;5074571;28;20436;-72
2022/05/20 12:28:48;;;;;;;4.85;3.88;;;18.60;99.90;;;;;;5074609;28;20101;-74
2022/05/20 12:31:14;;;;;;;3.38;2.80;;;18.60;99.90;;;;;;5074952;28;20127;-72
2022/05/20 12:33:51;;;;;;;3.35;2.63;;;18.60;99.90;;;;;;5074783;28;20174;-74
2022/05/20 12:36:33;;;;;;;3.38;2.72;;;18.60;99.90;;;;;;5056969;28;20060;-72
2022/05/20 12:39:11;;;;;;;3.50;1.90;;;18.60;99.90;;;;;;5074515;28;20123;-74
2022/05/20 12:41:46;;;;;;;4.72;2.75;;;18.60;99.90;;;;;;5074425;28;20052;-72
2022/05/20 12:44:17;;;;;;;6.28;4.68;;;18.60;99.90;;;;;;5074405;28;20128;-72
2022/05/20 12:47:10;;;;;;;5.30;4.30;;;18.60;99.90;;;;;;5074319;28;20571;-71
2022/05/20 12:49:50;;;;;;;4.65;3.28;;;18.60;99.90;;;;;;5074260;28;20435;-73
2022/05/20 12:52:51;;;;;;;5.80;3.03;;;18.60;99.90;;;;;;5074196;28;20044;-73
2022/05/20 12:55:24;;;;;;;7.28;3.88;;;18.60;99.90;;;;;;4973423;28;20055;-73
2022/05/20 12:57:54;;;;;;;3.70;2.67;;;18.50;99.90;;;;;;4973397;28;20058;-73
2022/05/20 13:00:41;;;;;;;3.50;2.60;;;18.60;99.90;;;;;;4971612;28;20055;-71
2022/05/20 13:03:22;;;;;;;4.93;3.20;;;18.70;99.90;;;;;;4989688;28;20047;-73
2022/05/20 13:05:51;;;;;;;3.67;3.00;;;18.70;99.90;;;;;;4973247;28;20298;-73
2022/05/20 13:08:24;;;;;;;6.07;3.33;;;18.70;99.90;;;;;;4957162;28;20047;-71
2022/05/20 13:10:50;;;;;;;6.13;4.10;;;18.70;99.90;;;;;;4957384;28;20054;-73
2022/05/20 13:13:18;;;;;;;7.63;3.80;;;18.70;99.90;;;;;;4973010;28;20381;-72
2022/05/20 13:15:50;;;;;;;5.68;3.25;;;18.70;99.90;;;;;;4973050;28;20046;-73
2022/05/20 13:18:22;;;;;;;4.65;2.75;;;18.70;99.90;;;;;;4957232;28;20054;-72
2022/05/20 13:20:54;;;;;;;5.65;4.05;;;18.70;99.90;;;;;;4973160;28;20055;-72
2022/05/20 13:23:35;;;;;;;5.38;3.38;;;18.70;99.90;;;;;;4972647;28;20125;-72
2022/05/20 13:26:02;;;;;;;7.00;2.95;;;18.70;99.90;;;;;;4972846;28;20077;-73
2022/05/20 13:28:36;;;;;;;4.93;3.08;;;18.70;99.90;;;;;;4972916;28;20047;-72
2022/05/20 13:31:09;;;;;;;4.63;3.10;;;18.70;99.90;;;;;;4996946;28;20193;-73
2022/05/20 13:33:39;;;;;;;5.28;2.63;;;18.70;99.90;;;;;;5073441;28;20097;-72
2022/05/20 13:36:07;;;;;;;4.00;2.60;;;18.70;99.90;;;;;;5073472;28;20512;-73
2022/05/20 13:38:39;;;;;;;10.45;2.60;;;18.60;99.90;;;;;;5055337;28;20040;-72
2022/05/20 13:41:07;;;;;;;4.07;2.75;;;18.60;99.90;;;;;;5073661;28;20048;-74
2022/05/20 13:43:35;;;;;;;5.97;3.42;;;18.60;99.90;;;;;;5073239;28;20048;-72
2022/05/20 13:51:38;;;;;;;5.78;3.40;;;18.60;99.90;;;;;;5073325;28;20097;-72
2022/05/20 13:54:07;;;;;;;7.68;3.50;;;18.60;99.90;;;;;;5055353;28;20042;-71
2022/05/20 13:56:37;;;;;;;8.43;3.17;;;18.60;99.90;;;;;;5073242;28;20044;-71